createdAt,value
2023-01-28T00:01:46.813Z,10.65
2023-01-28T00:04:20.154Z,11.90
2023-01-28T00:09:32.696Z,11.07
2023-01-28T00:12:05.745Z,14.65
2023-01-28T00:14:38.899Z,11.93
2023-01-28T00:17:12.416Z,13.27
2023-01-28T00:19:45.915Z,13.50
2023-01-28T00:22:19.337Z,13.43
2023-01-28T00:27:24.372Z,13.77
2023-01-28T00:30:00.118Z,11.17
2023-01-28T00:32:32.882Z,12.80
2023-01-28T00:35:05.809Z,12.25
2023-01-28T00:37:38.724Z,13.70
2023-01-28T00:40:14.336Z,13.88
2023-01-28T00:42:46.960Z,15.43
2023-01-28T00:45:20.795Z,12.20
2023-01-28T00:47:53.627Z,14.73
2023-01-28T00:50:26.180Z,14.50
2023-01-28T00:52:58.703Z,10.73
2023-01-28T00:55:31.412Z,8.35
2023-01-28T00:58:04.052Z,8.30
2023-01-28T01:00:36.814Z,11.32
2023-01-28T01:03:09.419Z,7.68
2023-01-28T01:05:43.038Z,9.93
2023-01-28T01:08:15.695Z,9.13
2023-01-28T01:10:48.281Z,9.43
2023-01-28T01:13:20.840Z,8.13
2023-01-28T01:16:03.063Z,8.35
2023-01-28T01:18:36.194Z,9.02
2023-01-28T01:21:11.037Z,8.77
2023-01-28T01:23:44.749Z,10.68
2023-01-28T01:26:17.516Z,7.93
2023-01-28T01:28:51.843Z,9.40
2023-01-28T01:31:24.656Z,7.47
2023-01-28T01:33:57.338Z,9.45
2023-01-28T01:36:31.977Z,11.18
2023-01-28T01:39:04.609Z,12.07
2023-01-28T01:41:37.135Z,10.73
2023-01-28T01:44:48.747Z,9.25
2023-01-28T01:47:25.904Z,9.10
2023-01-28T01:50:01.159Z,8.90
2023-01-28T01:52:35.859Z,11.20
2023-01-28T01:55:14.991Z,9.68
2023-01-28T01:57:50.184Z,10.30
2023-01-28T02:00:23.084Z,11.38
2023-01-28T02:02:56.912Z,10.43
2023-01-28T02:05:29.516Z,8.82
2023-01-28T02:08:20.701Z,10.80
2023-01-28T02:11:06.355Z,8.38
2023-01-28T02:13:43.649Z,9.23
2023-01-28T02:16:16.752Z,10.70
2023-01-28T02:18:50.381Z,9.70
2023-01-28T02:21:44.111Z,8.73
2023-01-28T02:27:27.625Z,8.77
2023-01-28T02:30:13.592Z,11.80
2023-01-28T02:33:20.949Z,7.93
2023-01-28T02:35:55.526Z,9.18
2023-01-28T02:38:40.191Z,8.18
2023-01-28T02:41:23.499Z,9.45
2023-01-28T02:43:56.192Z,8.57
2023-01-28T02:46:47.388Z,8.75
2023-01-28T02:49:26.104Z,8.95
2023-01-28T02:51:58.717Z,7.30
2023-01-28T02:57:22.631Z,8.65
2023-01-28T03:00:14.000Z,6.82
2023-01-28T03:03:22.784Z,6.72
2023-01-28T03:06:07.367Z,8.05
2023-01-28T03:09:22.685Z,6.15
2023-01-28T03:12:18.851Z,6.57
2023-01-28T03:15:15.488Z,5.70
2023-01-28T03:18:37.273Z,6.10
2023-01-28T03:21:40.761Z,7.63
2023-01-28T03:24:43.730Z,8.45
2023-01-28T03:27:51.744Z,5.15
2023-01-28T03:30:55.831Z,5.85
2023-01-28T03:33:55.613Z,7.07
2023-01-28T03:36:50.362Z,7.70
2023-01-28T03:39:46.693Z,6.68
2023-01-28T03:42:19.736Z,5.97
2023-01-28T03:45:04.374Z,5.43
2023-01-28T03:47:40.827Z,5.68
2023-01-28T03:50:16.656Z,5.10
2023-01-28T03:55:54.131Z,9.07
2023-01-28T03:58:46.723Z,6.25
2023-01-28T04:01:21.619Z,5.07
2023-01-28T04:03:54.720Z,5.05
2023-01-28T04:06:31.951Z,5.00
2023-01-28T04:09:30.398Z,5.95
2023-01-28T04:12:21.406Z,7.03
2023-01-28T04:14:56.754Z,6.05
2023-01-28T04:17:33.720Z,4.35
2023-01-28T04:22:39.461Z,6.82
2023-01-28T04:25:15.712Z,6.60
2023-01-28T04:27:49.430Z,5.72
2023-01-28T04:30:28.530Z,5.78
2023-01-28T04:33:12.091Z,5.75
2023-01-28T04:39:06.700Z,7.38
2023-01-28T04:41:42.264Z,7.20
2023-01-28T04:44:30.259Z,5.57
2023-01-28T04:47:23.784Z,5.57
2023-01-28T04:50:09.768Z,6.65
2023-01-28T04:53:00.941Z,6.60
2023-01-28T04:55:58.504Z,4.68
2023-01-28T04:58:32.380Z,4.70
2023-01-28T05:01:09.170Z,5.00
2023-01-28T05:03:41.806Z,5.05
2023-01-28T05:06:16.401Z,7.13
2023-01-28T05:08:51.179Z,6.68
2023-01-28T05:11:24.120Z,4.78
2023-01-28T05:14:02.751Z,6.85
2023-01-28T05:16:45.029Z,4.88
2023-01-28T05:19:27.796Z,5.65
2023-01-28T05:22:12.821Z,5.28
2023-01-28T05:24:54.625Z,5.35
2023-01-28T05:27:27.348Z,5.68
2023-01-28T05:30:06.800Z,5.20
2023-01-28T05:32:39.496Z,4.63
2023-01-28T05:35:13.164Z,7.50
2023-01-28T05:40:19.342Z,4.50
2023-01-28T05:42:51.941Z,5.68
2023-01-28T05:45:32.827Z,8.68
2023-01-28T05:48:09.444Z,5.13
2023-01-28T05:51:05.645Z,5.55
2023-01-28T05:53:43.516Z,7.63
2023-01-28T05:56:16.709Z,7.55
2023-01-28T05:58:49.293Z,5.85
2023-01-28T06:01:22.107Z,6.15
2023-01-28T06:04:00.659Z,5.70
2023-01-28T06:06:35.601Z,5.25
2023-01-28T06:09:10.801Z,6.10
2023-01-28T06:11:44.632Z,9.00
2023-01-28T06:14:18.800Z,7.00
2023-01-28T06:17:09.922Z,5.35
2023-01-28T06:20:01.010Z,6.07
2023-01-28T06:22:36.224Z,4.40
2023-01-28T06:25:09.917Z,6.47
2023-01-28T06:27:42.599Z,7.22
2023-01-28T06:30:15.686Z,7.45
2023-01-28T06:32:48.424Z,6.82
2023-01-28T06:35:26.255Z,6.15
2023-01-28T06:38:06.990Z,7.43
2023-01-28T06:40:47.761Z,6.82
2023-01-28T06:43:36.614Z,9.02
2023-01-28T06:46:25.385Z,7.68
2023-01-28T06:49:11.419Z,6.25
2023-01-28T06:51:57.936Z,7.20
2023-01-28T06:54:41.555Z,6.03
2023-01-28T06:57:18.426Z,9.30
2023-01-28T06:59:55.569Z,6.57
2023-01-28T07:02:36.558Z,7.35
2023-01-28T07:05:13.123Z,7.53
2023-01-28T07:07:59.606Z,11.02
2023-01-28T07:10:35.621Z,7.05
2023-01-28T07:13:14.640Z,12.30
2023-01-28T07:15:47.212Z,13.77
2023-01-28T07:18:20.802Z,6.80
2023-01-28T07:20:53.368Z,11.88
2023-01-28T07:23:27.683Z,13.93
2023-01-28T07:26:03.175Z,10.23
2023-01-28T07:28:35.686Z,12.48
2023-01-28T07:31:10.695Z,10.60
2023-01-28T07:33:43.637Z,10.05
2023-01-28T07:36:16.100Z,9.82
2023-01-28T07:38:48.637Z,9.93
2023-01-28T07:41:21.429Z,16.77
2023-01-28T07:43:54.065Z,22.17
2023-01-28T07:46:26.669Z,24.67
2023-01-28T07:48:59.247Z,22.70
2023-01-28T07:51:31.832Z,13.75
2023-01-28T07:54:04.491Z,6.65
2023-01-28T07:56:37.032Z,8.57
2023-01-28T07:59:11.139Z,9.32
2023-01-28T08:01:43.916Z,8.07
2023-01-28T08:04:17.847Z,9.13
2023-01-28T08:06:52.592Z,6.10
2023-01-28T08:09:25.304Z,6.28
2023-01-28T08:11:57.845Z,5.35
2023-01-28T08:14:30.374Z,5.10
2023-01-28T08:17:02.911Z,6.17
2023-01-28T08:19:35.595Z,6.50
2023-01-28T08:22:08.257Z,6.97
2023-01-28T08:24:40.792Z,6.88
2023-01-28T08:27:13.412Z,6.35
2023-01-28T08:29:45.996Z,6.00
2023-01-28T08:32:18.745Z,6.00
2023-01-28T08:34:51.392Z,5.50
2023-01-28T08:37:24.847Z,5.97
2023-01-28T08:39:57.524Z,5.80
2023-01-28T08:42:30.111Z,9.80
2023-01-28T08:45:02.684Z,7.60
2023-01-28T08:47:35.762Z,7.20
2023-01-28T08:50:09.169Z,4.93
2023-01-28T08:55:19.269Z,6.90
2023-01-28T08:57:51.838Z,4.53
2023-01-28T09:00:24.667Z,3.13
2023-01-28T09:02:57.254Z,3.75
2023-01-28T09:05:30.627Z,4.07
2023-01-28T09:10:43.749Z,4.65
2023-01-28T09:13:16.651Z,4.05
2023-01-28T09:15:49.287Z,3.65
2023-01-28T09:18:22.290Z,6.65
2023-01-28T09:20:54.893Z,5.50
2023-01-28T09:23:27.474Z,7.47
2023-01-28T09:26:04.460Z,4.90
2023-01-28T09:28:38.617Z,5.10
2023-01-28T09:31:13.434Z,3.10
2023-01-28T09:33:47.636Z,3.35
2023-01-28T09:36:20.211Z,4.75
2023-01-28T09:38:52.972Z,4.05
2023-01-28T09:41:29.975Z,4.40
2023-01-28T09:44:17.871Z,4.90
2023-01-28T09:46:51.187Z,3.08
2023-01-28T09:52:14.794Z,2.80
2023-01-28T09:54:52.098Z,5.75
2023-01-28T09:57:37.671Z,6.22
2023-01-28T10:00:20.376Z,9.55
2023-01-28T10:03:27.325Z,5.90
2023-01-28T10:06:26.619Z,4.53
2023-01-28T10:09:20.728Z,9.75
2023-01-28T10:12:14.416Z,11.80
2023-01-28T10:15:10.425Z,7.80
2023-01-28T10:17:46.118Z,7.50
2023-01-28T10:20:22.017Z,8.88
2023-01-28T10:23:15.681Z,9.95
2023-01-28T10:25:49.245Z,10.50
2023-01-28T10:28:25.755Z,8.05
2023-01-28T10:30:58.286Z,5.88
2023-01-28T10:33:39.296Z,5.10
2023-01-28T10:36:11.942Z,4.38
2023-01-28T10:38:44.821Z,3.05
2023-01-28T10:41:21.725Z,3.05
2023-01-28T10:43:58.399Z,1.65
2023-01-28T10:46:35.157Z,1.58
2023-01-28T10:49:14.245Z,1.60
2023-01-28T10:51:49.623Z,2.50
2023-01-28T10:54:24.913Z,3.83
2023-01-28T10:57:03.604Z,4.63
2023-01-28T10:59:41.914Z,3.50
2023-01-28T11:02:29.051Z,4.85
2023-01-28T11:05:26.868Z,3.33
2023-01-28T11:08:17.657Z,6.30
2023-01-28T11:10:51.611Z,5.60
2023-01-28T11:13:26.936Z,4.55
2023-01-28T11:16:39.851Z,6.53
2023-01-28T11:19:12.783Z,2.45
2023-01-28T11:21:51.729Z,3.75
2023-01-28T11:24:31.555Z,3.70
2023-01-28T11:27:23.447Z,3.38
2023-01-28T11:30:02.402Z,2.42
2023-01-28T11:32:35.017Z,2.92
2023-01-28T11:35:08.206Z,3.72
2023-01-28T11:37:49.120Z,3.47
2023-01-28T11:40:22.581Z,2.97
2023-01-28T11:42:58.110Z,3.40
2023-01-28T11:45:36.040Z,4.72
2023-01-28T11:48:30.153Z,3.78
2023-01-28T11:51:19.835Z,2.75
2023-01-28T11:54:05.782Z,3.50
2023-01-28T11:56:50.738Z,5.03
2023-01-28T11:59:33.760Z,4.10
2023-01-28T12:02:30.966Z,3.70
2023-01-28T12:05:24.921Z,2.35
2023-01-28T12:10:58.273Z,2.13
2023-01-28T12:13:41.892Z,1.48
2023-01-28T12:19:17.225Z,1.50
2023-01-28T12:22:15.800Z,1.40
2023-01-28T12:24:51.478Z,1.77
2023-01-28T12:27:26.841Z,3.67
2023-01-28T12:30:28.453Z,2.35
2023-01-28T12:33:29.605Z,2.65
2023-01-28T12:36:14.152Z,2.03
2023-01-28T12:39:04.923Z,2.00
2023-01-28T12:41:54.235Z,2.25
2023-01-28T12:44:33.641Z,3.00
2023-01-28T12:47:14.717Z,1.27
2023-01-28T12:49:54.239Z,8.88
2023-01-28T12:52:40.244Z,3.38
2023-01-28T12:55:18.830Z,1.98
2023-01-28T12:57:53.737Z,1.60
2023-01-28T13:00:39.337Z,1.75
2023-01-28T13:03:32.954Z,1.95
2023-01-28T13:06:15.972Z,1.85
2023-01-28T13:08:49.829Z,6.65
2023-01-28T13:11:23.672Z,6.47
2023-01-28T13:13:56.304Z,2.13
2023-01-28T13:16:37.373Z,2.53
2023-01-28T13:19:40.780Z,1.55
2023-01-28T13:22:35.378Z,2.50
2023-01-28T13:25:59.087Z,2.05
2023-01-28T13:28:33.726Z,2.05
2023-01-28T13:31:09.701Z,7.82
2023-01-28T13:33:44.528Z,4.85
2023-01-28T13:36:31.467Z,2.40
2023-01-28T13:39:18.859Z,2.88
2023-01-28T13:42:09.213Z,2.03
2023-01-28T13:44:43.204Z,4.22
2023-01-28T13:47:25.070Z,3.50
2023-01-28T13:50:03.850Z,2.75
2023-01-28T13:52:51.121Z,4.32
2023-01-28T13:55:42.836Z,2.88
2023-01-28T13:58:32.462Z,4.75
2023-01-28T14:01:27.447Z,2.33
2023-01-28T14:04:11.005Z,5.05
2023-01-28T14:07:02.597Z,6.85
2023-01-28T14:10:01.215Z,5.45
2023-01-28T14:12:44.124Z,4.40
2023-01-28T14:15:44.811Z,5.53
2023-01-28T14:18:49.994Z,1.65
2023-01-28T14:21:24.234Z,1.33
2023-01-28T14:23:59.610Z,1.35
2023-01-28T14:26:43.335Z,2.10
2023-01-28T14:29:30.200Z,3.88
2023-01-28T14:32:20.107Z,5.75
2023-01-28T14:34:55.224Z,1.48
2023-01-28T14:37:31.919Z,1.30
2023-01-28T14:40:07.593Z,1.65
2023-01-28T14:42:49.344Z,2.35
2023-01-28T14:45:50.259Z,1.67
2023-01-28T14:48:51.488Z,1.73
2023-01-28T14:51:42.476Z,3.05
2023-01-28T14:54:27.179Z,1.35
2023-01-28T14:57:16.423Z,1.55
2023-01-28T14:59:58.581Z,2.08
2023-01-28T15:02:32.948Z,1.67
2023-01-28T15:05:35.797Z,1.60
2023-01-28T15:08:10.640Z,1.60
2023-01-28T15:10:44.009Z,2.30
2023-01-28T15:16:01.369Z,1.63
2023-01-28T15:18:43.990Z,1.77
2023-01-28T15:21:22.541Z,2.20
2023-01-28T15:24:01.619Z,1.55
2023-01-28T15:26:35.642Z,1.88
2023-01-28T15:29:32.889Z,2.17
2023-01-28T15:32:06.861Z,3.28
2023-01-28T15:34:46.958Z,2.08
2023-01-28T15:37:20.818Z,1.83
2023-01-28T15:40:06.444Z,2.20
2023-01-28T15:42:40.811Z,1.83
2023-01-28T15:45:22.866Z,2.95
2023-01-28T15:48:15.872Z,3.13
2023-01-28T15:51:01.847Z,3.17
2023-01-28T15:53:44.725Z,4.18
2023-01-28T15:56:28.871Z,3.47
2023-01-28T15:59:34.103Z,2.70
2023-01-28T16:02:22.794Z,2.65
2023-01-28T16:05:00.782Z,1.60
2023-01-28T16:07:43.718Z,1.95
2023-01-28T16:10:26.041Z,1.90
2023-01-28T16:13:07.483Z,2.00
2023-01-28T16:16:06.330Z,2.20
2023-01-28T16:18:51.919Z,2.72
2023-01-28T16:21:32.363Z,1.88
2023-01-28T16:24:08.028Z,1.75
2023-01-28T16:26:40.821Z,1.75
2023-01-28T16:29:18.004Z,2.00
2023-01-28T16:31:50.936Z,2.40
2023-01-28T16:34:25.118Z,2.17
2023-01-28T16:37:00.503Z,2.95
2023-01-28T16:39:35.940Z,6.45
2023-01-28T16:42:09.753Z,2.85
2023-01-28T16:44:42.265Z,4.50
2023-01-28T16:47:14.867Z,2.00
2023-01-28T16:49:47.464Z,2.28
2023-01-28T16:52:20.125Z,2.67
2023-01-28T16:54:53.221Z,2.20
2023-01-28T16:57:25.840Z,2.33
2023-01-28T16:59:58.324Z,1.83
2023-01-28T17:02:33.720Z,3.67
2023-01-28T17:05:06.511Z,3.78
2023-01-28T17:07:39.088Z,2.20
2023-01-28T17:10:12.173Z,2.97
2023-01-28T17:12:45.331Z,6.13
2023-01-28T17:15:18.825Z,3.97
2023-01-28T17:17:55.779Z,5.80
2023-01-28T17:20:28.442Z,4.18
2023-01-28T17:23:01.032Z,4.80
2023-01-28T17:25:38.728Z,1.65
2023-01-28T17:28:11.912Z,3.10
2023-01-28T17:30:44.493Z,4.50
2023-01-28T17:33:20.256Z,2.75
2023-01-28T17:35:53.593Z,3.97
2023-01-28T17:38:26.791Z,3.92
2023-01-28T17:41:07.346Z,2.20
2023-01-28T17:43:41.676Z,3.28
2023-01-28T17:46:24.960Z,3.10
2023-01-28T17:48:57.970Z,2.85
2023-01-28T17:51:38.317Z,2.45
2023-01-28T17:54:12.160Z,6.90
2023-01-28T17:56:50.129Z,7.28
2023-01-28T17:59:24.990Z,6.30
2023-01-28T18:01:58.888Z,4.40
2023-01-28T18:04:32.053Z,3.58
2023-01-28T18:07:10.966Z,3.28
2023-01-28T18:09:46.210Z,6.30
2023-01-28T18:12:18.714Z,4.22
2023-01-28T18:14:51.439Z,5.93
2023-01-28T18:17:27.290Z,2.80
2023-01-28T18:19:59.966Z,5.38
2023-01-28T18:22:32.833Z,4.85
2023-01-28T18:25:05.861Z,5.78
2023-01-28T18:27:39.026Z,6.30
2023-01-28T18:30:12.545Z,3.67
2023-01-28T18:32:45.656Z,4.25
2023-01-28T18:35:18.587Z,3.10
2023-01-28T18:37:53.212Z,4.53
2023-01-28T18:40:25.775Z,5.78
2023-01-28T18:42:58.331Z,7.25
2023-01-28T18:45:31.130Z,5.55
2023-01-28T18:48:06.998Z,5.18
2023-01-28T18:50:39.539Z,4.43
2023-01-28T18:53:12.350Z,9.10
2023-01-28T18:55:45.339Z,5.07
2023-01-28T18:58:18.161Z,3.90
2023-01-28T19:00:50.907Z,4.70
2023-01-28T19:03:34.910Z,3.38
2023-01-28T19:06:25.107Z,3.35
2023-01-28T19:08:59.952Z,3.00
2023-01-28T19:11:34.162Z,4.13
2023-01-28T19:14:07.675Z,6.57
2023-01-28T19:16:40.958Z,3.17
2023-01-28T19:19:14.250Z,3.30
2023-01-28T19:21:46.848Z,3.63
2023-01-28T19:24:25.497Z,3.40
2023-01-28T19:27:03.068Z,4.25
2023-01-28T19:29:36.086Z,3.28
2023-01-28T19:32:09.148Z,2.63
2023-01-28T19:34:41.727Z,3.70
2023-01-28T19:37:14.471Z,3.23
2023-01-28T19:39:47.039Z,3.28
2023-01-28T19:42:19.814Z,3.60
2023-01-28T19:44:53.544Z,3.42
2023-01-28T19:47:27.438Z,3.22
2023-01-28T19:50:01.272Z,4.30
2023-01-28T19:52:43.945Z,3.25
2023-01-28T19:55:20.089Z,3.00
2023-01-28T20:00:30.515Z,2.88
2023-01-28T20:03:08.200Z,2.63
2023-01-28T20:05:41.551Z,2.83
2023-01-28T20:08:18.152Z,2.92
2023-01-28T20:10:51.550Z,3.20
2023-01-28T20:13:24.487Z,2.92
2023-01-28T20:15:57.790Z,2.83
2023-01-28T20:21:05.974Z,2.95
2023-01-28T20:23:39.159Z,3.00
2023-01-28T20:26:12.594Z,3.60
2023-01-28T20:28:46.289Z,3.55
2023-01-28T20:33:53.921Z,4.30
2023-01-28T20:39:00.310Z,5.20
2023-01-28T20:41:33.571Z,4.82
2023-01-28T20:44:06.979Z,5.22
2023-01-28T20:49:13.807Z,6.28
2023-01-28T20:51:47.554Z,6.00
2023-01-28T20:54:21.884Z,5.35
2023-01-28T20:56:55.865Z,5.53
2023-01-28T20:59:29.782Z,6.35
2023-01-28T21:02:03.501Z,6.32
2023-01-28T21:04:37.105Z,6.07
2023-01-28T21:07:13.266Z,5.40
2023-01-28T21:09:46.551Z,7.63
2023-01-28T21:14:53.862Z,7.00
2023-01-28T21:17:33.023Z,6.10
2023-01-28T21:20:07.020Z,6.05
2023-01-28T21:22:40.352Z,7.90
2023-01-28T21:25:16.797Z,7.22
2023-01-28T21:27:51.322Z,6.63
2023-01-28T21:30:25.083Z,6.53
2023-01-28T21:32:59.065Z,6.55
2023-01-28T21:35:42.858Z,6.13
2023-01-28T21:38:16.077Z,8.45
2023-01-28T21:40:51.320Z,6.82
2023-01-28T21:43:24.846Z,7.82
2023-01-28T21:51:26.871Z,10.20
2023-01-28T21:54:00.396Z,7.05
2023-01-28T21:56:33.869Z,7.55
2023-01-28T21:59:25.695Z,7.00
2023-01-28T22:02:07.271Z,10.40
2023-01-28T22:04:43.411Z,8.65
2023-01-28T22:07:18.706Z,8.80
2023-01-28T22:09:53.102Z,9.85
2023-01-28T22:12:28.711Z,9.88
2023-01-28T22:15:01.817Z,8.02
2023-01-28T22:17:35.515Z,7.57
2023-01-28T22:20:12.453Z,8.25
2023-01-28T22:22:45.756Z,8.77
2023-01-28T22:25:19.961Z,7.35
2023-01-28T22:27:53.387Z,8.88
2023-01-28T22:30:26.970Z,8.40
2023-01-28T22:33:00.169Z,8.45
2023-01-28T22:35:32.861Z,9.38
2023-01-28T22:38:05.426Z,9.55
2023-01-28T22:40:38.003Z,9.70
2023-01-28T22:43:10.668Z,8.80
2023-01-28T22:45:43.290Z,8.80
2023-01-28T22:48:15.804Z,7.45
2023-01-28T22:50:48.382Z,6.40
2023-01-28T22:53:23.753Z,5.57
2023-01-28T22:55:57.188Z,5.40
2023-01-28T22:58:31.801Z,5.50
2023-01-28T23:01:05.330Z,7.35
2023-01-28T23:06:13.724Z,5.05
2023-01-28T23:08:47.827Z,5.85
2023-01-28T23:11:28.690Z,6.57
2023-01-28T23:14:22.209Z,7.45
2023-01-28T23:17:14.165Z,7.57
2023-01-28T23:20:05.999Z,6.18
2023-01-28T23:22:58.156Z,9.07
2023-01-28T23:25:31.296Z,7.45
2023-01-28T23:28:04.750Z,8.02
2023-01-28T23:33:13.261Z,8.23
2023-01-28T23:38:19.999Z,5.70
2023-01-28T23:40:53.443Z,6.63
2023-01-28T23:46:04.685Z,6.25
2023-01-28T23:48:38.668Z,7.38
2023-01-28T23:51:12.395Z,7.30
2023-01-28T23:53:46.340Z,9.05
2023-01-28T23:56:20.149Z,10.50
2023-01-28T23:58:53.389Z,11.18
